PWSweather.com
Personal Weather Stations
Station Observations
IONTARIO88
Lincoln, ON L0R

Lincoln, ON L0R

Lat: 43.1763563, Lon: -79.4719525

Elevation: 297

Station Type: Davis Vantage Pro 2 Plus

http://www.beamsvillewx.ca

High Low Average
Temperature 39.9°F4.4°C 29.1°F-1.6°C 33.2°F0.7°C
Dew Point 28.3°F-2.1°C 24.8°F-4.0°C 26.2°F-3.2°C
Winds 7.0 mph 11.3 kmh Calm Calm 4.0 mph SSW6.4 kmh SSW
Wind Gusts 15.0 mph24.1 kmh -- 10.0 mph16.1 kmh
Humidity 85% 57% 76%
Pressure 30.38 in1028.8 mb 29.97 in1014.9 mb -
Precipitation 0.00 in0.0 mm - -
Hour Temp Dew Point Humidity Winds Wind Gusts Pressure Precip Precip Rate Daily Precip Total
12:00 AM 31.3°F-0.4°C 25.8°F-3.4°C 80% 4.0 mph WSW6.4 kmh WSW 10.0 mph16.1 kmh 29.98 in1015.2 mb 0.00 in0.0 mm 0.00 in0.0 mm 0.00 in0.0 mm
12:15 AM 31.1°F-0.5°C 26.0°F-3.3°C 81% 4.0 mph SW6.4 kmh SW 11.0 mph17.7 kmh 29.98 in1015.2 mb 0.00 in0.0 mm 0.00 in0.0 mm 0.00 in0.0 mm
12:30 AM 30.9°F-0.6°C 26.1°F-3.3°C 82% 3.0 mph SW4.8 kmh SW 9.0 mph14.5 kmh 29.97 in1014.9 mb 0.00 in0.0 mm 0.00 in0.0 mm 0.00 in0.0 mm
12:45 AM 30.9°F-0.6°C 26.4°F-3.1°C 83% 4.0 mph SW6.4 kmh SW 11.0 mph17.7 kmh 29.97 in1014.9 mb 0.00 in0.0 mm 0.00 in0.0 mm 0.00 in0.0 mm
01:00 AM 30.9°F-0.6°C 26.4°F-3.1°C 83% 5.0 mph SW8.0 kmh SW 11.0 mph17.7 kmh 29.97 in1014.9 mb 0.00 in0.0 mm 0.00 in0.0 mm 0.00 in0.0 mm
01:15 AM 30.7°F-0.7°C 26.5°F-3.1°C 84% 4.0 mph SW6.4 kmh SW 11.0 mph17.7 kmh 29.98 in1015.2 mb 0.00 in0.0 mm 0.00 in0.0 mm 0.00 in0.0 mm
01:30 AM 30.7°F-0.7°C 26.5°F-3.1°C 84% 4.0 mph SW6.4 kmh SW 10.0 mph16.1 kmh 29.99 in1015.6 mb 0.00 in0.0 mm 0.00 in0.0 mm 0.00 in0.0 mm
01:45 AM 30.4°F-0.9°C 25.8°F-3.4°C 83% 5.0 mph SW8.0 kmh SW 10.0 mph16.1 kmh 29.99 in1015.6 mb 0.00 in0.0 mm 0.00 in0.0 mm 0.00 in0.0 mm
02:00 AM 30.4°F-0.9°C 25.8°F-3.4°C 83% 5.0 mph WSW8.0 kmh WSW 11.0 mph17.7 kmh 30.00 in1015.9 mb 0.00 in0.0 mm 0.00 in0.0 mm 0.00 in0.0 mm
02:15 AM 30.4°F-0.9°C 25.5°F-3.6°C 82% 5.0 mph WSW8.0 kmh WSW 12.0 mph19.3 kmh 30.00 in1015.9 mb 0.00 in0.0 mm 0.00 in0.0 mm 0.00 in0.0 mm
02:30 AM 30.2°F-1.0°C 25.7°F-3.5°C 83% 5.0 mph WSW8.0 kmh WSW 11.0 mph17.7 kmh 30.01 in1016.3 mb 0.00 in0.0 mm 0.00 in0.0 mm 0.00 in0.0 mm
02:45 AM 30.6°F-0.8°C 25.7°F-3.5°C 82% 5.0 mph WSW8.0 kmh WSW 11.0 mph17.7 kmh 30.03 in1016.9 mb 0.00 in0.0 mm 0.00 in0.0 mm 0.00 in0.0 mm
03:00 AM 30.6°F-0.8°C 25.7°F-3.5°C 82% 6.0 mph WSW9.7 kmh WSW 12.0 mph19.3 kmh 30.03 in1016.9 mb 0.00 in0.0 mm 0.00 in0.0 mm 0.00 in0.0 mm
03:15 AM 30.4°F-0.9°C 25.5°F-3.6°C 82% 4.0 mph WSW6.4 kmh WSW 12.0 mph19.3 kmh 30.04 in1017.3 mb 0.00 in0.0 mm 0.00 in0.0 mm 0.00 in0.0 mm
03:30 AM 29.8°F-1.2°C 25.3°F-3.7°C 83% 4.0 mph WSW6.4 kmh WSW 13.0 mph20.9 kmh 30.04 in1017.3 mb 0.00 in0.0 mm 0.00 in0.0 mm 0.00 in0.0 mm
03:45 AM 29.5°F-1.4°C 25.0°F-3.9°C 83% 3.0 mph SW4.8 kmh SW 9.0 mph14.5 kmh 30.04 in1017.3 mb 0.00 in0.0 mm 0.00 in0.0 mm 0.00 in0.0 mm
04:00 AM 29.1°F-1.6°C 24.9°F-3.9°C 84% 3.0 mph SW4.8 kmh SW 9.0 mph14.5 kmh 30.05 in1017.6 mb 0.00 in0.0 mm 0.00 in0.0 mm 0.00 in0.0 mm
04:15 AM 29.1°F-1.6°C 25.2°F-3.8°C 85% 4.0 mph WSW6.4 kmh WSW 12.0 mph19.3 kmh 30.07 in1018.3 mb 0.00 in0.0 mm 0.00 in0.0 mm 0.00 in0.0 mm
04:30 AM 29.1°F-1.6°C 25.2°F-3.8°C 85% 4.0 mph WSW6.4 kmh WSW 11.0 mph17.7 kmh 30.08 in1018.6 mb 0.00 in0.0 mm 0.00 in0.0 mm 0.00 in0.0 mm
04:45 AM 29.7°F-1.3°C 25.7°F-3.5°C 85% 5.0 mph WSW8.0 kmh WSW 12.0 mph19.3 kmh 30.09 in1019.0 mb 0.00 in0.0 mm 0.00 in0.0 mm 0.00 in0.0 mm
05:00 AM 30.0°F-1.1°C 26.1°F-3.3°C 85% 4.0 mph WSW6.4 kmh WSW 11.0 mph17.7 kmh 30.10 in1019.3 mb 0.00 in0.0 mm 0.00 in0.0 mm 0.00 in0.0 mm
05:15 AM 29.7°F-1.3°C 25.7°F-3.5°C 85% 6.0 mph WSW9.7 kmh WSW 13.0 mph20.9 kmh 30.11 in1019.6 mb 0.00 in0.0 mm 0.00 in0.0 mm 0.00 in0.0 mm
05:30 AM 30.0°F-1.1°C 26.1°F-3.3°C 85% 6.0 mph WSW9.7 kmh WSW 13.0 mph20.9 kmh 30.13 in1020.3 mb 0.00 in0.0 mm 0.00 in0.0 mm 0.00 in0.0 mm
05:45 AM 30.6°F-0.8°C 26.3°F-3.2°C 84% 5.0 mph WSW8.0 kmh WSW 11.0 mph17.7 kmh 30.14 in1020.7 mb 0.00 in0.0 mm 0.00 in0.0 mm 0.00 in0.0 mm
06:00 AM 30.7°F-0.7°C 26.5°F-3.1°C 84% 4.0 mph WSW6.4 kmh WSW 10.0 mph16.1 kmh 30.14 in1020.7 mb 0.00 in0.0 mm 0.00 in0.0 mm 0.00 in0.0 mm
06:15 AM 30.9°F-0.6°C 26.7°F-2.9°C 84% 4.0 mph SW6.4 kmh SW 13.0 mph20.9 kmh 30.16 in1021.3 mb 0.00 in0.0 mm 0.00 in0.0 mm 0.00 in0.0 mm
06:30 AM 30.9°F-0.6°C 26.4°F-3.1°C 83% 5.0 mph WSW8.0 kmh WSW 11.0 mph17.7 kmh 30.17 in1021.7 mb 0.00 in0.0 mm 0.00 in0.0 mm 0.00 in0.0 mm
06:45 AM 31.1°F-0.5°C 26.5°F-3.1°C 83% 5.0 mph SW8.0 kmh SW 13.0 mph20.9 kmh 30.19 in1022.4 mb 0.00 in0.0 mm 0.00 in0.0 mm 0.00 in0.0 mm
07:00 AM 31.3°F-0.4°C 27.0°F-2.8°C 84% 5.0 mph WSW8.0 kmh WSW 12.0 mph19.3 kmh 30.20 in1022.7 mb 0.00 in0.0 mm 0.00 in0.0 mm 0.00 in0.0 mm
07:15 AM 31.3°F-0.4°C 27.0°F-2.8°C 84% 3.0 mph SW4.8 kmh SW 10.0 mph16.1 kmh 30.20 in1022.7 mb 0.00 in0.0 mm 0.00 in0.0 mm 0.00 in0.0 mm
07:30 AM 31.5°F-0.3°C 26.9°F-2.8°C 83% 3.0 mph SW4.8 kmh SW 9.0 mph14.5 kmh 30.22 in1023.4 mb 0.00 in0.0 mm 0.00 in0.0 mm 0.00 in0.0 mm
07:45 AM 31.5°F-0.3°C 27.2°F-2.7°C 84% 3.0 mph SW4.8 kmh SW 8.0 mph12.9 kmh 30.22 in1023.4 mb 0.00 in0.0 mm 0.00 in0.0 mm 0.00 in0.0 mm
08:00 AM 31.5°F-0.3°C 27.2°F-2.7°C 84% 4.0 mph SW6.4 kmh SW 9.0 mph14.5 kmh 30.24 in1024.0 mb 0.00 in0.0 mm 0.00 in0.0 mm 0.00 in0.0 mm
08:15 AM 31.5°F-0.3°C 27.2°F-2.7°C 84% 4.0 mph SW6.4 kmh SW 11.0 mph17.7 kmh 30.25 in1024.4 mb 0.00 in0.0 mm 0.00 in0.0 mm 0.00 in0.0 mm
08:30 AM 31.6°F-0.2°C 27.1°F-2.7°C 83% 5.0 mph SW8.0 kmh SW 10.0 mph16.1 kmh 30.27 in1025.1 mb 0.00 in0.0 mm 0.00 in0.0 mm 0.00 in0.0 mm
08:45 AM 31.6°F-0.2°C 27.1°F-2.7°C 83% 5.0 mph SW8.0 kmh SW 11.0 mph17.7 kmh 30.28 in1025.4 mb 0.00 in0.0 mm 0.00 in0.0 mm 0.00 in0.0 mm
09:00 AM 31.8°F-0.1°C 27.2°F-2.7°C 83% 4.0 mph SW6.4 kmh SW 8.0 mph12.9 kmh 30.27 in1025.1 mb 0.00 in0.0 mm 0.00 in0.0 mm 0.00 in0.0 mm
09:15 AM 31.8°F-0.1°C 27.0°F-2.8°C 82% 3.0 mph SW4.8 kmh SW 8.0 mph12.9 kmh 30.28 in1025.4 mb 0.00 in0.0 mm 0.00 in0.0 mm 0.00 in0.0 mm
09:30 AM 32.2°F0.1°C 27.3°F-2.6°C 82% 5.0 mph SW8.0 kmh SW 10.0 mph16.1 kmh 30.30 in1026.1 mb 0.00 in0.0 mm 0.00 in0.0 mm 0.00 in0.0 mm
09:45 AM 32.4°F0.2°C 27.5°F-2.5°C 82% 4.0 mph SW6.4 kmh SW 12.0 mph19.3 kmh 30.30 in1026.1 mb 0.00 in0.0 mm 0.00 in0.0 mm 0.00 in0.0 mm
10:00 AM 32.7°F0.4°C 27.5°F-2.5°C 81% 5.0 mph SW8.0 kmh SW 13.0 mph20.9 kmh 30.31 in1026.4 mb 0.00 in0.0 mm 0.00 in0.0 mm 0.00 in0.0 mm
10:15 AM 33.1°F0.6°C 27.6°F-2.4°C 80% 6.0 mph SW9.7 kmh SW 13.0 mph20.9 kmh 30.31 in1026.4 mb 0.00 in0.0 mm 0.00 in0.0 mm 0.00 in0.0 mm
10:30 AM 33.8°F1.0°C 28.0°F-2.2°C 79% 5.0 mph SW8.0 kmh SW 11.0 mph17.7 kmh 30.30 in1026.1 mb 0.00 in0.0 mm 0.00 in0.0 mm 0.00 in0.0 mm
10:45 AM 34.5°F1.4°C 28.1°F-2.2°C 77% 5.0 mph SW8.0 kmh SW 13.0 mph20.9 kmh 30.31 in1026.4 mb 0.00 in0.0 mm 0.00 in0.0 mm 0.00 in0.0 mm
11:00 AM 35.4°F1.9°C 28.3°F-2.1°C 75% 5.0 mph WSW8.0 kmh WSW 11.0 mph17.7 kmh 30.31 in1026.4 mb 0.00 in0.0 mm 0.00 in0.0 mm 0.00 in0.0 mm
11:15 AM 35.2°F1.8°C 27.8°F-2.3°C 74% 6.0 mph SW9.7 kmh SW 12.0 mph19.3 kmh 30.31 in1026.4 mb 0.00 in0.0 mm 0.00 in0.0 mm 0.00 in0.0 mm
11:30 AM 36.5°F2.5°C 27.3°F-2.6°C 69% 6.0 mph SW9.7 kmh SW 12.0 mph19.3 kmh 30.32 in1026.8 mb 0.00 in0.0 mm 0.00 in0.0 mm 0.00 in0.0 mm
11:45 AM 36.9°F2.7°C 27.3°F-2.6°C 68% 6.0 mph SW9.7 kmh SW 15.0 mph24.1 kmh 30.33 in1027.1 mb 0.00 in0.0 mm 0.00 in0.0 mm 0.00 in0.0 mm
12:00 PM 38.1°F3.4°C 27.4°F-2.6°C 65% 7.0 mph SW11.3 kmh SW 14.0 mph22.5 kmh 30.33 in1027.1 mb 0.00 in0.0 mm 0.00 in0.0 mm 0.00 in0.0 mm
12:15 PM 37.9°F3.3°C 26.8°F-2.9°C 64% 7.0 mph WSW11.3 kmh WSW 14.0 mph22.5 kmh 30.34 in1027.4 mb 0.00 in0.0 mm 0.00 in0.0 mm 0.00 in0.0 mm
12:30 PM 37.4°F3.0°C 26.7°F-2.9°C 65% 6.0 mph WSW9.7 kmh WSW 15.0 mph24.1 kmh 30.34 in1027.4 mb 0.00 in0.0 mm 0.00 in0.0 mm 0.00 in0.0 mm
12:45 PM 37.6°F3.1°C 26.1°F-3.3°C 63% 7.0 mph WSW11.3 kmh WSW 15.0 mph24.1 kmh 30.34 in1027.4 mb 0.00 in0.0 mm 0.00 in0.0 mm 0.00 in0.0 mm
01:00 PM 37.2°F2.9°C 26.2°F-3.2°C 64% 6.0 mph WSW9.7 kmh WSW 14.0 mph22.5 kmh 30.34 in1027.4 mb 0.00 in0.0 mm 0.00 in0.0 mm 0.00 in0.0 mm
01:15 PM 36.7°F2.6°C 26.7°F-2.9°C 67% 6.0 mph WSW9.7 kmh WSW 13.0 mph20.9 kmh 30.34 in1027.4 mb 0.00 in0.0 mm 0.00 in0.0 mm 0.00 in0.0 mm
01:30 PM 36.9°F2.7°C 26.9°F-2.8°C 67% 7.0 mph WSW11.3 kmh WSW 13.0 mph20.9 kmh 30.34 in1027.4 mb 0.00 in0.0 mm 0.00 in0.0 mm 0.00 in0.0 mm
01:45 PM 36.9°F2.7°C 26.9°F-2.8°C 67% 4.0 mph WSW6.4 kmh WSW 10.0 mph16.1 kmh 30.33 in1027.1 mb 0.00 in0.0 mm 0.00 in0.0 mm 0.00 in0.0 mm
02:00 PM 37.2°F2.9°C 26.5°F-3.1°C 65% 4.0 mph WSW6.4 kmh WSW 11.0 mph17.7 kmh 30.33 in1027.1 mb 0.00 in0.0 mm 0.00 in0.0 mm 0.00 in0.0 mm
02:15 PM 38.5°F3.6°C 27.4°F-2.6°C 64% 5.0 mph WSW8.0 kmh WSW 11.0 mph17.7 kmh 30.33 in1027.1 mb 0.00 in0.0 mm 0.00 in0.0 mm 0.00 in0.0 mm
02:30 PM 39.0°F3.9°C 27.1°F-2.7°C 62% 4.0 mph SW6.4 kmh SW 10.0 mph16.1 kmh 30.31 in1026.4 mb 0.00 in0.0 mm 0.00 in0.0 mm 0.00 in0.0 mm
02:45 PM 39.2°F4.0°C 25.2°F-3.8°C 57% 4.0 mph WSW6.4 kmh WSW 7.0 mph11.3 kmh 30.31 in1026.4 mb 0.00 in0.0 mm 0.00 in0.0 mm 0.00 in0.0 mm
03:00 PM 39.9°F4.4°C 25.9°F-3.4°C 57% 5.0 mph SW8.0 kmh SW 10.0 mph16.1 kmh 30.31 in1026.4 mb 0.00 in0.0 mm 0.00 in0.0 mm 0.00 in0.0 mm
03:15 PM 39.6°F4.2°C 25.6°F-3.6°C 57% 4.0 mph WSW6.4 kmh WSW 10.0 mph16.1 kmh 30.31 in1026.4 mb 0.00 in0.0 mm 0.00 in0.0 mm 0.00 in0.0 mm
03:30 PM 39.0°F3.9°C 25.5°F-3.6°C 58% 4.0 mph SW6.4 kmh SW 9.0 mph14.5 kmh 30.31 in1026.4 mb 0.00 in0.0 mm 0.00 in0.0 mm 0.00 in0.0 mm
03:45 PM 39.0°F3.9°C 25.9°F-3.4°C 59% 4.0 mph WSW6.4 kmh WSW 10.0 mph16.1 kmh 30.32 in1026.8 mb 0.00 in0.0 mm 0.00 in0.0 mm 0.00 in0.0 mm
04:00 PM 38.7°F3.7°C 26.0°F-3.3°C 60% 4.0 mph SW6.4 kmh SW 12.0 mph19.3 kmh 30.32 in1026.8 mb 0.00 in0.0 mm 0.00 in0.0 mm 0.00 in0.0 mm
04:15 PM 38.5°F3.6°C 27.0°F-2.8°C 63% 5.0 mph SSW8.0 kmh SSW 10.0 mph16.1 kmh 30.33 in1027.1 mb 0.00 in0.0 mm 0.00 in0.0 mm 0.00 in0.0 mm
04:30 PM 38.1°F3.4°C 26.6°F-3.0°C 63% 6.0 mph SSW9.7 kmh SSW 12.0 mph19.3 kmh 30.33 in1027.1 mb 0.00 in0.0 mm 0.00 in0.0 mm 0.00 in0.0 mm
04:45 PM 38.1°F3.4°C 27.0°F-2.8°C 64% 5.0 mph SSW8.0 kmh SSW 15.0 mph24.1 kmh 30.34 in1027.4 mb 0.00 in0.0 mm 0.00 in0.0 mm 0.00 in0.0 mm
05:00 PM 37.4°F3.0°C 26.7°F-2.9°C 65% 5.0 mph SSW8.0 kmh SSW 15.0 mph24.1 kmh 30.36 in1028.1 mb 0.00 in0.0 mm 0.00 in0.0 mm 0.00 in0.0 mm
05:15 PM 37.0°F2.8°C 26.4°F-3.1°C 65% 6.0 mph SW9.7 kmh SW 13.0 mph20.9 kmh 30.36 in1028.1 mb 0.00 in0.0 mm 0.00 in0.0 mm 0.00 in0.0 mm
05:30 PM 36.7°F2.6°C 26.4°F-3.1°C 66% 6.0 mph SW9.7 kmh SW 13.0 mph20.9 kmh 30.38 in1028.8 mb 0.00 in0.0 mm 0.00 in0.0 mm 0.00 in0.0 mm
05:45 PM 36.1°F2.3°C 25.9°F-3.4°C 66% 5.0 mph SW8.0 kmh SW 13.0 mph20.9 kmh 30.38 in1028.8 mb 0.00 in0.0 mm 0.00 in0.0 mm 0.00 in0.0 mm
06:00 PM 35.6°F2.0°C 26.4°F-3.1°C 69% 5.0 mph SW8.0 kmh SW 11.0 mph17.7 kmh 30.38 in1028.8 mb 0.00 in0.0 mm 0.00 in0.0 mm 0.00 in0.0 mm
06:15 PM 35.2°F1.8°C 26.4°F-3.1°C 70% 4.0 mph SW6.4 kmh SW 10.0 mph16.1 kmh 30.38 in1028.8 mb 0.00 in0.0 mm 0.00 in0.0 mm 0.00 in0.0 mm
06:30 PM 34.9°F1.6°C 26.4°F-3.1°C 71% 4.0 mph SSW6.4 kmh SSW 10.0 mph16.1 kmh 30.37 in1028.4 mb 0.00 in0.0 mm 0.00 in0.0 mm 0.00 in0.0 mm
06:45 PM 34.3°F1.3°C 26.2°F-3.2°C 72% 3.0 mph SSW4.8 kmh SSW 7.0 mph11.3 kmh 30.38 in1028.8 mb 0.00 in0.0 mm 0.00 in0.0 mm 0.00 in0.0 mm
07:00 PM 34.0°F1.1°C 26.2°F-3.2°C 73% 3.0 mph SW4.8 kmh SW 8.0 mph12.9 kmh 30.38 in1028.8 mb 0.00 in0.0 mm 0.00 in0.0 mm 0.00 in0.0 mm
07:15 PM 33.6°F0.9°C 25.9°F-3.4°C 73% 1.0 mph SW1.6 kmh SW 5.0 mph8.0 kmh 30.37 in1028.4 mb 0.00 in0.0 mm 0.00 in0.0 mm 0.00 in0.0 mm
07:30 PM 33.4°F0.8°C 25.7°F-3.5°C 73% Calm Calm -- 30.37 in1028.4 mb 0.00 in0.0 mm 0.00 in0.0 mm 0.00 in0.0 mm
07:45 PM 32.7°F0.4°C 25.7°F-3.5°C 75% Calm Calm -- 30.36 in1028.1 mb 0.00 in0.0 mm 0.00 in0.0 mm 0.00 in0.0 mm
08:00 PM 32.0°F0.0°C 25.3°F-3.7°C 76% Calm Calm -- 30.36 in1028.1 mb 0.00 in0.0 mm 0.00 in0.0 mm 0.00 in0.0 mm
08:15 PM 31.6°F-0.2°C 25.3°F-3.7°C 77% Calm Calm -- 30.35 in1027.8 mb 0.00 in0.0 mm 0.00 in0.0 mm 0.00 in0.0 mm
08:30 PM 31.5°F-0.3°C 25.4°F-3.7°C 78% Calm Calm -- 30.34 in1027.4 mb 0.00 in0.0 mm 0.00 in0.0 mm 0.00 in0.0 mm
08:45 PM 30.9°F-0.6°C 25.2°F-3.8°C 79% Calm Calm -- 30.33 in1027.1 mb 0.00 in0.0 mm 0.00 in0.0 mm 0.00 in0.0 mm
09:00 PM 30.4°F-0.9°C 24.9°F-3.9°C 80% Calm Calm -- 30.32 in1026.8 mb 0.00 in0.0 mm 0.00 in0.0 mm 0.00 in0.0 mm
09:15 PM 29.8°F-1.2°C 25.0°F-3.9°C 82% Calm Calm -- 30.32 in1026.8 mb 0.00 in0.0 mm 0.00 in0.0 mm 0.00 in0.0 mm
09:30 PM 29.7°F-1.3°C 24.8°F-4.0°C 82% Calm Calm -- 30.31 in1026.4 mb 0.00 in0.0 mm 0.00 in0.0 mm 0.00 in0.0 mm
09:45 PM 29.7°F-1.3°C 24.8°F-4.0°C 82% Calm Calm -- 30.31 in1026.4 mb 0.00 in0.0 mm 0.00 in0.0 mm 0.00 in0.0 mm
10:00 PM 29.7°F-1.3°C 24.8°F-4.0°C 82% Calm Calm -- 30.31 in1026.4 mb 0.00 in0.0 mm 0.00 in0.0 mm 0.00 in0.0 mm
10:15 PM 30.0°F-1.1°C 24.9°F-3.9°C 81% 1.0 mph SW1.6 kmh SW 5.0 mph8.0 kmh 30.30 in1026.1 mb 0.00 in0.0 mm 0.00 in0.0 mm 0.00 in0.0 mm
10:30 PM 30.7°F-0.7°C 25.0°F-3.9°C 79% 3.0 mph SW4.8 kmh SW 6.0 mph9.7 kmh 30.29 in1025.7 mb 0.00 in0.0 mm 0.00 in0.0 mm 0.00 in0.0 mm
10:45 PM 30.9°F-0.6°C 25.5°F-3.6°C 80% 3.0 mph SSE4.8 kmh SSE 8.0 mph12.9 kmh 30.28 in1025.4 mb 0.00 in0.0 mm 0.00 in0.0 mm 0.00 in0.0 mm
11:00 PM 30.7°F-0.7°C 25.0°F-3.9°C 79% 4.0 mph S6.4 kmh S 9.0 mph14.5 kmh 30.28 in1025.4 mb 0.00 in0.0 mm 0.00 in0.0 mm 0.00 in0.0 mm
11:15 PM 31.1°F-0.5°C 25.0°F-3.9°C 78% 5.0 mph S8.0 kmh S 12.0 mph19.3 kmh 30.27 in1025.1 mb 0.00 in0.0 mm 0.00 in0.0 mm 0.00 in0.0 mm
11:30 PM 31.3°F-0.4°C 24.9°F-3.9°C 77% 3.0 mph S4.8 kmh S 8.0 mph12.9 kmh 30.26 in1024.7 mb 0.00 in0.0 mm 0.00 in0.0 mm 0.00 in0.0 mm
11:45 PM 31.5°F-0.3°C 25.1°F-3.8°C 77% 4.0 mph S6.4 kmh S 9.0 mph14.5 kmh 30.25 in1024.4 mb 0.00 in0.0 mm 0.00 in0.0 mm 0.00 in0.0 mm